Time;durP1;ratioP1;P1;durP2;ratioP2;P2;SDS_P1;SDS_P2;PMS_P1;PMS_P2;Temp;Humidity;BMP_temperature;BMP_pressure;BME280_temperature;BME280_humidity;BME280_pressure;Samples;Min_cycle;Max_cycle;Signal;HPM_P1;HPM_P2
2023/06/25 00:00:45;;;;;;;5.40;3.97;;;;;;;19.75;100.00;100506.56;5586603;31;34052;-70
2023/06/25 00:03:48;;;;;;;4.43;3.55;;;;;;;19.59;100.00;100503.66;5586683;31;33836;-70
2023/06/25 00:06:50;;;;;;;5.12;3.50;;;;;;;19.57;100.00;100497.66;5586500;31;34785;-70
2023/06/25 00:09:54;;;;;;;5.87;3.65;;;;;;;19.47;100.00;100504.38;5586819;31;34574;-70
2023/06/25 00:12:57;;;;;;;4.82;3.08;;;;;;;19.46;100.00;100500.03;5586392;31;35131;-69
2023/06/25 00:16:00;;;;;;;4.57;3.28;;;;;;;19.42;100.00;100503.38;5586344;31;34110;-70
2023/06/25 00:19:03;;;;;;;6.70;3.25;;;;;;;19.41;100.00;100504.44;5586312;31;34783;-70
2023/06/25 00:22:05;;;;;;;6.15;3.10;;;;;;;19.47;100.00;100503.56;5586217;31;34634;-70
2023/06/25 00:25:09;;;;;;;5.40;3.30;;;;;;;19.52;100.00;100511.78;5586318;31;33889;-70
2023/06/25 00:28:11;;;;;;;4.93;3.10;;;;;;;19.60;100.00;100516.06;5586011;31;34775;-70
2023/06/25 00:31:14;;;;;;;6.40;2.67;;;;;;;19.64;100.00;100514.56;5586087;31;34081;-70
2023/06/25 00:34:19;;;;;;;3.50;2.53;;;;;;;19.59;100.00;100515.25;5586032;31;34078;-70
2023/06/25 00:37:22;;;;;;;6.43;2.85;;;;;;;19.62;100.00;100519.34;5585430;31;34575;-70
2023/06/25 00:40:25;;;;;;;3.50;2.40;;;;;;;19.69;100.00;100514.72;5588413;31;34013;-70
2023/06/25 00:43:28;;;;;;;3.53;2.42;;;;;;;19.74;100.00;100518.41;5588429;31;35087;-70
2023/06/25 00:46:31;;;;;;;4.15;2.50;;;;;;;19.81;100.00;100513.75;5588278;31;34062;-70
2023/06/25 00:49:34;;;;;;;4.28;2.03;;;;;;;19.84;100.00;100529.47;5588437;31;33824;-70
2023/06/25 00:52:37;;;;;;;3.28;2.30;;;;;;;19.81;100.00;100527.19;5588212;31;34106;-70
2023/06/25 00:55:39;;;;;;;3.15;2.30;;;;;;;19.71;100.00;100529.59;5588275;31;33869;-70
2023/06/25 00:58:43;;;;;;;2.75;2.42;;;;;;;19.84;100.00;100529.47;5587434;31;33824;-70
2023/06/25 01:01:54;;;;;;;3.85;2.72;;;;;;;19.88;100.00;100527.97;5588307;31;34370;-70
2023/06/25 01:05:12;;;;;;;4.35;2.45;;;;;;;19.77;100.00;100528.69;5588201;31;33994;-70
2023/06/25 01:08:17;;;;;;;2.60;2.33;;;;;;;19.75;100.00;100524.59;5587304;31;34206;-70
2023/06/25 01:11:19;;;;;;;2.78;2.40;;;;;;;19.82;100.00;100522.63;5588124;31;34004;-70
2023/06/25 01:14:28;;;;;;;4.07;2.30;;;;;;;19.81;100.00;100519.13;5588088;31;34064;-70
2023/06/25 01:17:31;;;;;;;4.43;2.22;;;;;;;19.81;100.00;100504.84;5588081;31;34023;-70
2023/06/25 01:20:38;;;;;;;4.37;2.22;;;;;;;19.90;100.00;100509.69;5588125;31;33833;-70
2023/06/25 01:23:40;;;;;;;5.37;2.55;;;;;;;19.85;100.00;100506.84;5588135;31;34553;-70
2023/06/25 01:26:44;;;;;;;2.80;2.28;;;;;;;19.88;100.00;100509.13;5588065;31;34752;-70
2023/06/25 01:29:48;;;;;;;5.70;2.67;;;;;;;20.03;100.00;100508.72;5587817;31;34744;-70
2023/06/25 01:32:51;;;;;;;3.80;2.45;;;;;;;20.00;100.00;100493.00;5588037;31;33970;-70
2023/06/25 01:35:54;;;;;;;4.43;2.70;;;;;;;19.95;100.00;100492.84;5587850;31;33813;-70
2023/06/25 01:38:56;;;;;;;3.72;2.70;;;;;;;20.11;100.00;100502.19;5587894;31;34084;-70
2023/06/25 01:41:59;;;;;;;9.98;3.47;;;;;;;19.79;100.00;100501.56;5587987;31;34303;-70
2023/06/25 01:45:03;;;;;;;4.00;2.92;;;;;;;19.76;100.00;100502.81;5587996;31;34194;-70
2023/06/25 01:48:06;;;;;;;6.32;2.75;;;;;;;19.81;100.00;100499.44;5587778;31;34154;-70
2023/06/25 01:51:10;;;;;;;3.35;2.80;;;;;;;19.84;100.00;100504.41;5587762;31;34704;-70
2023/06/25 01:54:12;;;;;;;4.25;2.50;;;;;;;19.78;100.00;100499.91;5587835;31;34058;-70
2023/06/25 01:57:15;;;;;;;5.30;2.75;;;;;;;19.71;100.00;100496.47;5587874;31;33928;-70
2023/06/25 02:00:18;;;;;;;4.32;2.58;;;;;;;19.69;100.00;100494.00;5587735;31;34144;-70
2023/06/25 02:03:35;;;;;;;4.43;2.85;;;;;;;19.69;100.00;100479.72;5587752;31;34656;-70
2023/06/25 02:06:38;;;;;;;5.32;2.65;;;;;;;19.71;100.00;100475.75;5587638;31;34146;-70
2023/06/25 02:09:41;;;;;;;3.92;2.65;;;;;;;19.79;100.00;100480.84;5587930;31;34765;-70
2023/06/25 02:12:44;;;;;;;3.60;2.60;;;;;;;19.89;100.00;100483.00;5587700;31;33987;-70
2023/06/25 02:15:46;;;;;;;6.05;3.00;;;;;;;20.02;100.00;100482.84;5587564;31;33701;-70
2023/06/25 02:18:50;;;;;;;4.50;3.30;;;;;;;19.87;100.00;100490.47;5587457;31;34099;-69
2023/06/25 02:21:53;;;;;;;4.25;3.30;;;;;;;19.90;100.00;100487.31;5587507;31;34794;-70
2023/06/25 02:24:56;;;;;;;5.12;3.50;;;;;;;19.85;100.00;100500.63;5587458;31;33821;-70
2023/06/25 02:27:58;;;;;;;4.75;3.30;;;;;;;19.71;100.00;100505.37;5587491;31;33746;-70
2023/06/25 02:31:01;;;;;;;3.30;3.00;;;;;;;19.63;100.00;100507.53;5586509;31;33972;-70
2023/06/25 02:34:04;;;;;;;3.45;3.10;;;;;;;19.70;100.00;100498.34;5587414;31;34767;-70
2023/06/25 02:37:12;;;;;;;6.82;2.72;;;;;;;19.77;100.00;100503.66;5587515;31;34105;-70
2023/06/25 02:40:15;;;;;;;6.32;3.00;;;;;;;19.68;100.00;100496.91;5587354;31;34169;-70
2023/06/25 02:43:18;;;;;;;3.10;2.25;;;;;;;19.66;100.00;100496.31;5587290;31;34074;-70
2023/06/25 02:46:20;;;;;;;3.53;2.37;;;;;;;19.63;100.00;100494.06;5587575;31;34095;-70
2023/06/25 02:49:23;;;;;;;3.22;2.20;;;;;;;19.74;100.00;100491.47;5587173;31;34676;-70
2023/06/25 02:52:26;;;;;;;2.90;2.40;;;;;;;19.67;100.00;100501.47;5587148;31;33998;-70
2023/06/25 02:55:29;;;;;;;4.25;2.70;;;;;;;19.64;100.00;100496.56;5587354;31;34832;-70
2023/06/25 02:58:32;;;;;;;7.10;2.92;;;;;;;19.70;100.00;100505.59;5587323;31;34176;-70
2023/06/25 03:01:35;;;;;;;3.47;3.15;;;;;;;19.75;100.00;100501.16;5586851;31;35225;-70
2023/06/25 03:04:37;;;;;;;4.45;3.20;;;;;;;19.70;100.00;100505.59;5587268;31;33888;-70
2023/06/25 03:07:51;;;;;;;8.70;3.80;;;;;;;19.76;100.00;100510.91;5587174;31;34076;-71
2023/06/25 03:10:54;;;;;;;7.10;4.12;;;;;;;19.67;100.00;100504.16;5586986;31;33953;-70
2023/06/25 03:13:57;;;;;;;6.32;4.00;;;;;;;19.68;100.00;100507.69;5587134;31;33977;-70
2023/06/25 03:16:59;;;;;;;6.32;3.72;;;;;;;19.61;100.00;100513.12;5587298;31;34002;-70
2023/06/25 03:20:03;;;;;;;7.53;3.97;;;;;;;19.62;100.00;100509.41;5587063;31;34118;-70
2023/06/25 03:23:06;;;;;;;4.82;3.50;;;;;;;19.52;100.00;100511.78;5587264;31;34024;-70
2023/06/25 03:26:09;;;;;;;4.75;3.12;;;;;;;19.53;100.00;100514.25;5586929;31;34783;-70
2023/06/25 03:29:12;;;;;;;6.00;3.10;;;;;;;19.50;100.00;100512.03;5586844;31;34077;-70
2023/06/25 03:32:14;;;;;;;4.25;2.78;;;;;;;19.55;100.00;100516.75;5585940;31;35028;-71
2023/06/25 03:35:17;;;;;;;3.30;2.50;;;;;;;19.61;100.00;100517.69;5586907;31;34209;-70
2023/06/25 03:38:20;;;;;;;4.75;2.80;;;;;;;19.59;100.00;100519.78;5586880;31;34008;-70
2023/06/25 03:41:24;;;;;;;3.25;2.55;;;;;;;19.53;100.00;100508.88;5587046;31;34082;-70
2023/06/25 03:44:28;;;;;;;3.85;2.53;;;;;;;19.62;100.00;100509.41;5586810;31;34169;-70
2023/06/25 03:47:31;;;;;;;4.65;2.80;;;;;;;19.58;100.00;100518.97;5586234;31;34226;-70
2023/06/25 03:50:34;;;;;;;4.25;2.80;;;;;;;19.62;100.00;100520.16;5586627;31;34332;-70
2023/06/25 03:53:38;;;;;;;6.07;2.87;;;;;;;19.65;100.00;100517.06;5586577;31;34231;-70
2023/06/25 03:56:41;;;;;;;3.70;2.58;;;;;;;19.57;100.00;100525.41;5586689;31;34543;-70
2023/06/25 03:59:44;;;;;;;5.40;2.78;;;;;;;19.62;100.00;100524.72;5586679;31;34168;-70
2023/06/25 04:02:47;;;;;;;2.87;2.58;;;;;;;19.79;100.00;100520.41;5586827;31;34082;-70
2023/06/25 04:05:50;;;;;;;3.00;2.70;;;;;;;19.64;100.00;100522.66;5586626;31;33822;-70
2023/06/25 04:08:53;;;;;;;3.20;2.50;;;;;;;19.66;100.00;100520.53;5586534;31;34021;-70
2023/06/25 04:11:56;;;;;;;3.60;2.70;;;;;;;19.63;100.00;100521.00;5585377;31;34084;-70
2023/06/25 04:14:58;;;;;;;5.03;2.67;;;;;;;19.64;100.00;100526.16;5586366;31;34897;-70
2023/06/25 04:18:01;;;;;;;3.35;2.80;;;;;;;19.68;100.00;100521.97;5586347;31;34085;-70
2023/06/25 04:21:05;;;;;;;3.65;2.75;;;;;;;19.75;100.00;100520.00;5586325;31;33762;-70
2023/06/25 04:24:08;;;;;;;7.80;2.75;;;;;;;19.70;100.00;100517.19;5586242;31;34094;-70
2023/06/25 04:27:11;;;;;;;5.12;2.97;;;;;;;19.82;100.00;100525.34;5586210;31;34278;-70
2023/06/25 04:30:16;;;;;;;4.12;2.60;;;;;;;19.83;100.00;100525.13;5586023;31;34717;-70
2023/06/25 04:33:20;;;;;;;4.78;2.60;;;;;;;19.94;100.00;100523.56;5586361;31;34769;-70
2023/06/25 04:36:23;;;;;;;3.47;2.47;;;;;;;19.87;100.00;100523.62;5586400;31;34044;-70
2023/06/25 04:39:26;;;;;;;4.15;2.55;;;;;;;19.95;100.00;100519.78;5586046;31;33896;-70
2023/06/25 04:42:31;;;;;;;3.58;2.50;;;;;;;19.94;100.00;100524.34;5585909;31;33837;-70
2023/06/25 04:45:33;;;;;;;3.35;2.30;;;;;;;19.95;100.00;100517.91;5585883;31;34093;-70
2023/06/25 04:48:37;;;;;;;4.18;2.50;;;;;;;20.01;100.00;100515.37;5585922;31;34847;-70
2023/06/25 04:51:44;;;;;;;2.47;2.12;;;;;;;20.33;100.00;100509.59;5585622;31;34273;-70
2023/06/25 04:54:47;;;;;;;2.80;2.40;;;;;;;20.28;100.00;100514.00;5585973;31;34723;-70
2023/06/25 04:57:51;;;;;;;5.87;2.20;;;;;;;20.44;100.00;100526.03;5585689;31;34031;-71
2023/06/25 05:00:54;;;;;;;3.55;2.30;;;;;;;20.14;100.00;100518.72;5585601;31;33783;-70
2023/06/25 05:03:56;;;;;;;4.10;2.22;;;;;;;20.16;100.00;100519.31;5585482;31;34778;-70
2023/06/25 05:06:59;;;;;;;3.40;2.17;;;;;;;20.28;100.00;100520.19;5585441;31;35151;-70
2023/06/25 05:10:02;;;;;;;4.12;2.30;;;;;;;20.06;100.00;100523.59;5585336;31;33809;-71
2023/06/25 05:13:05;;;;;;;4.10;2.00;;;;;;;20.05;100.00;100524.63;5585499;31;34146;-70
2023/06/25 05:16:08;;;;;;;4.32;2.35;;;;;;;20.00;100.00;100522.63;5585175;31;34752;-71
2023/06/25 05:19:10;;;;;;;4.00;2.00;;;;;;;19.96;100.00;100532.22;5585311;31;34807;-70
2023/06/25 05:22:13;;;;;;;6.60;2.20;;;;;;;19.98;100.00;100535.50;5585167;31;35121;-70
2023/06/25 05:25:16;;;;;;;4.20;1.92;;;;;;;20.12;100.00;100531.59;5587285;31;34275;-70
2023/06/25 05:28:18;;;;;;;4.35;2.20;;;;;;;19.95;100.00;100531.38;5588053;31;34689;-69
2023/06/25 05:31:21;;;;;;;4.00;2.45;;;;;;;20.24;100.00;100527.09;5587805;31;34042;-69
2023/06/25 05:34:24;;;;;;;3.67;2.25;;;;;;;20.33;100.00;100531.13;5587935;31;34642;-69
2023/06/25 05:37:27;;;;;;;4.90;2.60;;;;;;;20.63;100.00;100536.53;5587952;31;34520;-69
2023/06/25 05:40:29;;;;;;;4.50;2.45;;;;;;;20.68;100.00;100542.06;5588147;31;34072;-69
2023/06/25 05:43:32;;;;;;;3.85;2.67;;;;;;;20.81;100.00;100533.78;5587882;31;34568;-69
2023/06/25 05:46:35;;;;;;;3.95;2.53;;;;;;;20.60;100.00;100537.00;5587909;31;34583;-70
2023/06/25 05:49:38;;;;;;;3.50;2.28;;;;;;;20.41;100.00;100538.09;5587701;31;34923;-70
2023/06/25 05:52:42;;;;;;;4.32;2.78;;;;;;;20.42;100.00;100549.69;5586777;31;34097;-70
2023/06/25 05:55:45;;;;;;;4.80;2.15;;;;;;;20.59;100.00;100540.75;5587648;31;34327;-70
2023/06/25 05:58:48;;;;;;;2.95;2.45;;;;;;;20.70;100.00;100549.91;5587660;31;34063;-70
2023/06/25 06:01:50;;;;;;;7.22;2.47;;;;;;;20.63;100.00;100546.50;5587601;31;34385;-70
2023/06/25 06:04:54;;;;;;;3.75;2.42;;;;;;;20.39;100.00;100548.28;5587665;31;33962;-70
2023/06/25 06:07:56;;;;;;;3.47;2.30;;;;;;;20.25;100.00;100541.38;5587536;31;34752;-69
2023/06/25 06:10:59;;;;;;;3.37;2.33;;;;;;;20.41;100.00;100538.09;5587506;31;34237;-70
2023/06/25 06:14:02;;;;;;;2.97;2.40;;;;;;;20.32;100.00;100551.06;5587721;31;34012;-70
2023/06/25 06:17:05;;;;;;;3.12;2.17;;;;;;;20.36;100.00;100543.34;5587269;31;34171;-71
2023/06/25 06:20:08;;;;;;;3.92;1.98;;;;;;;20.45;100.00;100550.06;5572281;31;33856;-70
2023/06/25 06:23:11;;;;;;;4.05;2.00;;;;;;;20.58;100.00;100549.88;5585772;31;34134;-69
2023/06/25 06:26:15;;;;;;;3.17;2.30;;;;;;;20.88;100.00;100543.62;5586912;31;34728;-70
2023/06/25 06:29:19;;;;;;;4.35;2.08;;;;;;;21.02;100.00;100542.37;5586913;31;34354;-70
2023/06/25 06:32:21;;;;;;;2.90;1.70;;;;;;;21.16;100.00;100550.03;5587211;31;34775;-70
2023/06/25 06:35:24;;;;;;;3.30;1.95;;;;;;;20.85;100.00;100554.91;5586317;31;34177;-70
2023/06/25 06:38:27;;;;;;;2.55;1.90;;;;;;;20.61;100.00;100552.13;5587409;31;34114;-69
2023/06/25 06:41:30;;;;;;;3.50;1.85;;;;;;;20.78;100.00;100558.50;5587380;31;33830;-70
2023/06/25 06:44:32;;;;;;;4.37;1.77;;;;;;;21.07;100.00;100551.41;5587424;31;34175;-70
2023/06/25 06:47:35;;;;;;;2.92;2.03;;;;;;;21.16;100.00;100560.84;5583927;31;33915;-70
2023/06/25 06:50:37;;;;;;;2.37;1.73;;;;;;;21.28;100.00;100555.47;5587323;31;33888;-70
2023/06/25 06:53:40;;;;;;;3.78;1.87;;;;;;;21.57;100.00;100553.72;5587383;31;33834;-69
2023/06/25 06:56:43;;;;;;;3.40;1.70;;;;;;;21.89;100.00;100554.97;5585786;31;34607;-70
2023/06/25 06:59:46;;;;;;;2.72;1.67;;;;;;;21.90;100.00;100550.38;5587139;31;34031;-70
2023/06/25 07:02:48;;;;;;;3.35;1.90;;;;;;;22.12;100.00;100545.22;5587107;31;34938;-69
2023/06/25 07:05:51;;;;;;;3.17;1.73;;;;;;;22.47;100.00;100548.59;5587187;31;33810;-70
2023/06/25 07:08:54;;;;;;;2.83;1.67;;;;;;;22.60;100.00;100553.72;5587179;31;33989;-70
2023/06/25 07:11:57;;;;;;;2.97;1.77;;;;;;;22.48;100.00;100552.94;5586970;31;34166;-70
2023/06/25 07:15:00;;;;;;;4.07;1.80;;;;;;;22.88;100.00;100556.44;5586836;31;33910;-69
2023/06/25 07:18:04;;;;;;;6.25;1.85;;;;;;;23.30;100.00;100554.16;5586835;31;34119;-70
2023/06/25 07:21:07;;;;;;;4.95;1.80;;;;;;;23.55;100.00;100551.03;5586774;31;33924;-70
2023/06/25 07:24:09;;;;;;;2.67;2.05;;;;;;;23.70;100.00;100555.84;5586733;31;34745;-69
2023/06/25 07:27:12;;;;;;;4.00;1.87;;;;;;;23.89;100.00;100551.78;5581550;31;34892;-70
2023/06/25 07:30:15;;;;;;;5.03;2.00;;;;;;;23.07;100.00;100551.59;5576222;31;33930;-70
2023/06/25 07:33:17;;;;;;;2.22;1.70;;;;;;;23.12;100.00;100550.88;5566343;31;33766;-70
2023/06/25 07:36:20;;;;;;;2.08;1.52;;;;;;;23.49;100.00;100553.91;5566813;32;34304;-70
2023/06/25 07:39:25;;;;;;;3.20;1.60;;;;;;;23.89;100.00;100551.78;5567089;32;34714;-70
2023/06/25 07:42:28;;;;;;;1.95;1.75;;;;;;;24.06;98.52;100554.44;5572371;31;34097;-70
2023/06/25 07:45:31;;;;;;;2.03;1.50;;;;;;;23.64;100.00;100548.72;5573968;31;35058;-71
2023/06/25 07:48:34;;;;;;;4.32;1.83;;;;;;;23.06;100.00;100549.97;5577558;31;33924;-69
2023/06/25 07:51:36;;;;;;;3.17;1.80;;;;;;;23.24;100.00;100549.72;5574014;31;34178;-71
2023/06/25 07:54:39;;;;;;;4.75;2.20;;;;;;;22.88;100.00;100553.72;5566051;32;34467;-70
2023/06/25 07:57:42;;;;;;;3.35;1.83;;;;;;;22.84;100.00;100549.88;5552506;32;33950;-70
2023/06/25 08:00:45;;;;;;;2.40;1.80;;;;;;;22.47;100.00;100545.87;5564841;32;34057;-70
2023/06/25 08:03:47;;;;;;;2.42;1.80;;;;;;;22.54;100.00;100550.09;5551904;32;34559;-70
2023/06/25 08:06:50;;;;;;;3.53;1.75;;;;;;;22.52;100.00;100546.00;5552296;32;34090;-70
2023/06/25 08:09:53;;;;;;;6.15;1.80;;;;;;;22.58;100.00;100546.91;5565957;32;34349;-70
2023/06/25 08:13:02;;;;;;;3.15;1.87;;;;;;;23.07;100.00;100545.37;5565097;32;34243;-69
2023/06/25 08:16:04;;;;;;;6.00;1.90;;;;;;;23.29;100.00;100554.38;5564931;32;34784;-70
2023/06/25 08:19:07;;;;;;;2.10;1.70;;;;;;;23.19;100.00;100552.34;5564674;32;34142;-68
2023/06/25 08:22:10;;;;;;;4.28;1.80;;;;;;;23.59;96.59;100544.03;5560692;32;33914;-70
2023/06/25 08:25:20;;;;;;;2.28;1.70;;;;;;;23.20;98.59;100543.16;5560355;32;33961;-70
2023/06/25 08:28:23;;;;;;;3.55;1.90;;;;;;;23.44;91.92;100540.25;5559597;32;34753;-68
2023/06/25 08:31:26;;;;;;;3.95;1.77;;;;;;;23.48;95.65;100547.66;5565983;32;33986;-69
2023/06/25 08:34:29;;;;;;;2.47;1.65;;;;;;;23.76;89.24;100538.59;5558900;32;34581;-69
2023/06/25 08:37:32;;;;;;;2.12;1.60;;;;;;;23.70;93.32;100545.84;5562469;32;35006;-68
2023/06/25 08:40:36;;;;;;;4.15;2.08;;;;;;;24.34;85.61;100550.75;5564366;32;34061;-68
2023/06/25 08:43:39;;;;;;;5.62;1.77;;;;;;;24.67;81.39;100542.41;5564387;32;34261;-69
2023/06/25 08:46:49;;;;;;;3.60;1.83;;;;;;;24.95;78.69;100534.00;5563172;32;34175;-69
2023/06/25 08:49:54;;;;;;;3.25;1.80;;;;;;;25.09;81.32;100537.09;5565539;32;34864;-70
2023/06/25 08:52:57;;;;;;;3.75;1.75;;;;;;;24.59;79.91;100537.44;5577873;31;34130;-69
2023/06/25 08:56:03;;;;;;;1.98;1.70;;;;;;;25.09;76.69;100529.78;5585001;31;33871;-69
2023/06/25 08:59:06;;;;;;;3.67;1.73;;;;;;;24.63;75.94;100536.69;5586339;31;34646;-69
2023/06/25 09:02:09;;;;;;;3.30;1.75;;;;;;;25.09;77.82;100528.97;5573771;31;34084;-68
2023/06/25 09:05:12;;;;;;;2.75;1.60;;;;;;;25.93;68.60;100534.41;5573685;31;33855;-70
2023/06/25 09:08:15;;;;;;;3.55;1.65;;;;;;;25.50;68.28;100530.09;5573651;31;34281;-70
2023/06/25 09:11:18;;;;;;;3.30;1.92;;;;;;;27.60;62.38;100523.75;5587284;31;33858;-70
2023/06/25 09:14:21;;;;;;;3.97;1.60;;;;;;;28.11;55.47;100516.25;5570415;31;34057;-70
2023/06/25 09:17:24;;;;;;;4.15;1.40;;;;;;;28.67;54.53;100519.47;5567830;32;34088;-71
2023/06/25 09:20:27;;;;;;;4.60;1.80;;;;;;;28.69;52.65;100527.38;5567896;32;34119;-71
2023/06/25 09:23:30;;;;;;;6.57;1.55;;;;;;;28.81;52.78;100515.00;5567154;31;34809;-70
2023/06/25 09:26:33;;;;;;;2.37;1.77;;;;;;;28.41;55.68;100528.94;5584467;31;34684;-70
2023/06/25 09:29:37;;;;;;;1.75;1.52;;;;;;;26.86;59.64;100512.63;5587498;31;34145;-69
2023/06/25 09:32:50;;;;;;;1.95;1.60;;;;;;;26.28;59.49;100507.41;5587249;31;34038;-69
2023/06/25 09:36:07;;;;;;;2.95;1.60;;;;;;;27.23;58.86;100511.28;5587643;31;34195;-71
2023/06/25 09:39:30;;;;;;;2.62;1.62;;;;;;;27.69;54.87;100499.50;5587906;31;34773;-69
2023/06/25 09:42:33;;;;;;;3.50;1.50;;;;;;;27.38;55.53;100496.81;5587517;31;34237;-70
2023/06/25 09:45:36;;;;;;;3.30;1.62;;;;;;;27.33;57.21;100501.47;5587489;31;34657;-69
2023/06/25 09:48:41;;;;;;;2.67;1.85;;;;;;;27.37;56.12;100497.91;5587568;31;34362;-71
2023/06/25 09:51:53;;;;;;;2.65;1.65;;;;;;;27.88;54.90;100493.16;5587276;31;34417;-69
2023/06/25 09:54:57;;;;;;;2.60;1.73;;;;;;;27.10;56.99;100487.34;5587393;31;34176;-70
2023/06/25 09:58:01;;;;;;;3.65;1.60;;;;;;;27.68;55.28;100493.22;5587539;31;34056;-68
2023/06/25 10:01:04;;;;;;;2.83;1.67;;;;;;;28.32;53.28;100492.41;5587587;31;35060;-69
2023/06/25 10:04:07;;;;;;;3.60;1.48;;;;;;;27.74;55.56;100486.66;5587468;31;34474;-70
2023/06/25 10:07:11;;;;;;;1.75;1.58;;;;;;;28.34;53.15;100482.84;5586747;31;35236;-71
2023/06/25 10:10:26;;;;;;;3.20;1.48;;;;;;;28.07;52.93;100471.53;5587085;31;33981;-70
2023/06/25 10:13:29;;;;;;;4.87;1.62;;;;;;;28.66;52.15;100465.16;5587014;31;34089;-70
2023/06/25 10:16:33;;;;;;;1.80;1.40;;;;;;;30.20;48.99;100475.84;5559515;32;32388;-71
2023/06/25 10:19:38;;;;;;;2.42;1.45;;;;;;;30.07;48.48;100477.37;5565647;32;33956;-71
2023/06/25 10:22:43;;;;;;;3.80;1.50;;;;;;;30.70;46.81;100481.66;5547678;32;35300;-71
2023/06/25 10:25:54;;;;;;;3.47;1.55;;;;;;;29.09;51.37;100479.84;5547376;32;35062;-72
2023/06/25 10:29:05;;;;;;;1.30;1.12;;;;;;;30.28;47.85;100480.63;5547753;32;33885;-71
2023/06/25 10:32:11;;;;;;;3.37;1.40;;;;;;;29.76;48.92;100468.72;5547826;32;34226;-73
2023/06/25 10:35:18;;;;;;;1.55;1.30;;;;;;;28.70;51.42;100472.50;5548013;32;33921;-70
2023/06/25 10:38:21;;;;;;;2.83;1.52;;;;;;;29.89;50.79;100464.47;5534346;32;32615;-70
2023/06/25 10:41:26;;;;;;;2.50;1.37;;;;;;;29.20;49.76;100468.50;5548029;32;33885;-69
2023/06/25 10:44:29;;;;;;;2.03;1.40;;;;;;;28.71;51.61;100468.66;5548060;32;35323;-71
2023/06/25 10:47:33;;;;;;;2.08;1.37;;;;;;;29.79;50.00;100470.06;5547872;32;33479;-72
2023/06/25 10:50:36;;;;;;;2.45;1.40;;;;;;;29.90;48.35;100477.06;5547951;32;35509;-72
2023/06/25 10:53:41;;;;;;;3.12;1.45;;;;;;;30.79;45.80;100479.88;5558450;31;34032;-70
2023/06/25 10:56:48;;;;;;;2.22;1.50;;;;;;;33.27;41.79;100463.56;5586915;31;34187;-71
2023/06/25 10:59:51;;;;;;;1.85;1.25;;;;;;;31.92;42.98;100468.16;5586682;31;35609;-69
2023/06/25 11:02:56;;;;;;;5.55;1.40;;;;;;;32.36;42.51;100461.16;5586942;31;34991;-71
2023/06/25 11:06:00;;;;;;;6.25;1.45;;;;;;;29.31;46.06;100461.03;5587093;31;34460;-70
2023/06/25 11:09:02;;;;;;;1.48;1.27;;;;;;;29.49;47.41;100452.09;5585847;31;34297;-71
2023/06/25 11:12:06;;;;;;;1.42;1.30;;;;;;;29.42;46.66;100454.37;5586214;31;34941;-71
2023/06/25 11:15:09;;;;;;;1.65;1.30;;;;;;;33.35;39.19;100452.62;5586992;31;33811;-72
2023/06/25 11:18:12;;;;;;;2.17;1.30;;;;;;;31.80;39.42;100440.44;5586974;31;34917;-71
2023/06/25 11:21:14;;;;;;;2.65;1.12;;;;;;;32.26;38.27;100436.69;5585390;31;34303;-71
2023/06/25 11:24:17;;;;;;;1.37;1.27;;;;;;;33.19;36.80;100438.47;5586888;31;34151;-72
2023/06/25 11:27:25;;;;;;;2.20;1.50;;;;;;;35.83;31.85;100438.16;5586961;31;34136;-72
2023/06/25 11:30:29;;;;;;;3.83;1.58;;;;;;;35.24;32.84;100436.19;5587027;31;34782;-71
2023/06/25 11:33:32;;;;;;;2.83;1.60;;;;;;;34.94;33.51;100442.75;5586592;31;34186;-72
2023/06/25 11:36:35;;;;;;;3.40;1.70;;;;;;;32.23;36.69;100432.63;5585793;31;34778;-72
2023/06/25 11:39:48;;;;;;;5.28;1.60;;;;;;;32.99;36.55;100429.94;5586028;31;34133;-71
2023/06/25 11:42:51;;;;;;;2.00;1.15;;;;;;;34.57;32.53;100430.47;5586330;31;32588;-72
2023/06/25 11:46:01;;;;;;;1.70;1.42;;;;;;;34.47;33.67;100419.78;5586522;31;34238;-70
2023/06/25 11:49:04;;;;;;;2.47;1.58;;;;;;;36.75;28.13;100444.41;5586566;31;34201;-68
2023/06/25 11:52:06;;;;;;;1.58;1.40;;;;;;;34.53;30.73;100417.69;5584243;31;33850;-71
2023/06/25 11:55:11;;;;;;;1.60;1.27;;;;;;;34.50;29.77;100412.81;5586549;31;34196;-71
2023/06/25 11:58:13;;;;;;;1.52;1.30;;;;;;;34.28;30.71;100414.62;5586345;31;34050;-71
2023/06/25 12:01:18;;;;;;;2.37;1.30;;;;;;;33.14;32.83;100418.53;5583910;31;34202;-72
2023/06/25 12:04:21;;;;;;;2.92;1.30;;;;;;;34.30;30.41;100406.03;5585459;31;34764;-70
2023/06/25 12:07:24;;;;;;;1.95;1.37;;;;;;;32.90;32.12;100401.59;5584192;31;35040;-70
2023/06/25 12:10:27;;;;;;;2.28;1.50;;;;;;;32.23;33.50;100407.94;5585646;31;33986;-70
2023/06/25 12:13:30;;;;;;;5.28;1.60;;;;;;;29.88;37.52;100399.09;5586194;31;33964;-69
2023/06/25 12:16:32;;;;;;;1.37;1.27;;;;;;;29.46;39.52;100403.47;5579647;31;34137;-70
2023/06/25 12:19:35;;;;;;;1.20;1.10;;;;;;;29.50;38.94;100401.78;5576222;31;34285;-70
2023/06/25 12:22:38;;;;;;;2.87;1.40;;;;;;;29.45;39.43;100399.09;5573718;31;34529;-69
2023/06/25 12:25:40;;;;;;;2.03;1.50;;;;;;;29.92;38.64;100402.91;5566505;32;35455;-69
2023/06/25 12:28:43;;;;;;;4.15;1.30;;;;;;;31.33;35.82;100407.91;5566369;32;34185;-69
2023/06/25 12:31:46;;;;;;;2.08;1.70;;;;;;;31.15;36.14;100408.84;5566155;32;33858;-70
2023/06/25 12:34:52;;;;;;;3.95;1.60;;;;;;;32.11;34.44;100409.59;5584028;31;33871;-71
2023/06/25 12:37:55;;;;;;;1.87;1.37;;;;;;;32.95;33.97;100396.78;5585777;31;33869;-68
2023/06/25 12:40:58;;;;;;;1.40;1.30;;;;;;;34.66;31.40;100398.22;5585635;31;33699;-70
2023/06/25 12:44:00;;;;;;;1.55;1.10;;;;;;;37.95;27.20;100398.62;5585529;31;33941;-71
2023/06/25 12:47:04;;;;;;;1.50;1.20;;;;;;;38.23;27.14;100393.91;5584577;31;35124;-70
2023/06/25 12:50:06;;;;;;;2.33;1.40;;;;;;;37.85;28.02;100391.59;5571919;31;34225;-70
2023/06/25 12:53:09;;;;;;;1.85;1.33;;;;;;;40.20;25.56;100404.81;5583898;31;34808;-70
2023/06/25 12:56:12;;;;;;;1.90;1.35;;;;;;;36.09;28.77;100391.84;5585320;31;34726;-70
2023/06/25 12:59:14;;;;;;;1.95;1.20;;;;;;;35.31;29.98;100375.78;5585389;31;33811;-70
2023/06/25 13:02:17;;;;;;;1.80;1.10;;;;;;;37.22;28.27;100373.78;5579686;31;33933;-71
2023/06/25 13:05:20;;;;;;;3.30;1.35;;;;;;;38.10;26.87;100377.69;5565625;32;34066;-68
2023/06/25 13:08:23;;;;;;;2.08;1.10;;;;;;;39.92;24.96;100390.28;5568259;31;35548;-70
2023/06/25 13:11:26;;;;;;;2.33;1.50;;;;;;;39.39;24.97;100376.00;5582220;31;34129;-70
2023/06/25 13:14:29;;;;;;;2.60;1.27;;;;;;;40.02;25.08;100372.22;5584532;31;34881;-70
2023/06/25 13:17:34;;;;;;;1.87;1.37;;;;;;;40.12;24.70;100377.22;5585183;31;34028;-71
2023/06/25 13:20:37;;;;;;;2.17;1.30;;;;;;;39.81;24.76;100370.62;5584812;31;35104;-72
2023/06/25 13:23:40;;;;;;;1.37;1.27;;;;;;;42.03;22.84;100363.72;5583840;31;34048;-72
2023/06/25 13:26:44;;;;;;;2.25;1.45;;;;;;;40.39;24.40;100363.09;5583782;31;34271;-72
2023/06/25 13:29:47;;;;;;;1.75;1.37;;;;;;;41.90;22.43;100360.41;5575018;31;33813;-74
2023/06/25 13:32:50;;;;;;;1.62;1.20;;;;;;;37.65;26.95;100339.16;5584553;31;34137;-72
2023/06/25 13:35:53;;;;;;;2.40;1.50;;;;;;;37.73;27.75;100339.00;5584606;31;34756;-74
2023/06/25 13:38:55;;;;;;;1.55;1.20;;;;;;;40.62;23.73;100343.66;5584372;31;34177;-72
2023/06/25 13:41:58;;;;;;;3.85;1.50;;;;;;;43.65;21.51;100341.28;5584039;31;34240;-71
2023/06/25 13:45:04;;;;;;;2.25;1.35;;;;;;;42.44;22.26;100342.31;5581685;31;35070;-71
2023/06/25 13:48:07;;;;;;;3.20;1.55;;;;;;;39.08;25.55;100334.38;5583650;31;34815;-73
2023/06/25 13:51:09;;;;;;;1.92;1.60;;;;;;;38.43;26.76;100324.75;5586839;31;34110;-71
2023/06/25 13:54:12;;;;;;;3.45;1.40;;;;;;;38.11;27.08;100310.84;5586392;31;35147;-71
2023/06/25 13:57:15;;;;;;;3.00;1.50;;;;;;;38.09;26.53;100313.19;5587192;31;34026;-71
2023/06/25 14:00:18;;;;;;;1.60;1.20;;;;;;;40.03;25.36;100316.31;5586961;31;34770;-71
2023/06/25 14:03:21;;;;;;;1.65;1.48;;;;;;;39.05;25.13;100307.38;5586047;31;33976;-71
2023/06/25 14:06:24;;;;;;;2.50;1.33;;;;;;;40.05;25.13;100310.34;5585922;31;34821;-71